sensor_id;sensor_type;location;lat;lon;timestamp;P1;durP1;ratioP1;P2;durP2;ratioP2
21270;SDS011;10795;50.796;3.860;2022-09-11T00:01:16;23.15;;;16.13;;
21270;SDS011;10795;50.796;3.860;2022-09-11T00:03:43;18.40;;;15.63;;
21270;SDS011;10795;50.796;3.860;2022-09-11T00:06:11;20.35;;;16.52;;
21270;SDS011;10795;50.796;3.860;2022-09-11T00:08:39;22.35;;;16.88;;
21270;SDS011;10795;50.796;3.860;2022-09-11T00:13:36;23.20;;;17.75;;
21270;SDS011;10795;50.796;3.860;2022-09-11T00:16:06;24.88;;;18.48;;
21270;SDS011;10795;50.796;3.860;2022-09-11T00:18:42;24.08;;;17.90;;
21270;SDS011;10795;50.796;3.860;2022-09-11T00:21:08;24.00;;;17.90;;
21270;SDS011;10795;50.796;3.860;2022-09-11T00:23:34;24.50;;;18.80;;
21270;SDS011;10795;50.796;3.860;2022-09-11T00:26:01;25.08;;;17.42;;
21270;SDS011;10795;50.796;3.860;2022-09-11T00:28:27;22.65;;;17.75;;
21270;SDS011;10795;50.796;3.860;2022-09-11T00:30:57;22.17;;;17.73;;
21270;SDS011;10795;50.796;3.860;2022-09-11T00:33:30;24.15;;;18.70;;
21270;SDS011;10795;50.796;3.860;2022-09-11T00:35:57;29.67;;;19.25;;
21270;SDS011;10795;50.796;3.860;2022-09-11T00:38:28;21.10;;;17.27;;
21270;SDS011;10795;50.796;3.860;2022-09-11T00:40:56;25.52;;;19.23;;
21270;SDS011;10795;50.796;3.860;2022-09-11T00:43:23;24.58;;;18.42;;
21270;SDS011;10795;50.796;3.860;2022-09-11T00:45:54;21.63;;;17.52;;
21270;SDS011;10795;50.796;3.860;2022-09-11T00:48:24;23.80;;;17.98;;
21270;SDS011;10795;50.796;3.860;2022-09-11T00:50:54;23.90;;;18.27;;
21270;SDS011;10795;50.796;3.860;2022-09-11T00:53:23;24.00;;;17.92;;
21270;SDS011;10795;50.796;3.860;2022-09-11T00:55:56;23.90;;;18.40;;
21270;SDS011;10795;50.796;3.860;2022-09-11T01:00:53;22.58;;;17.73;;
21270;SDS011;10795;50.796;3.860;2022-09-11T01:03:20;26.35;;;17.73;;
21270;SDS011;10795;50.796;3.860;2022-09-11T01:05:46;24.50;;;17.60;;
21270;SDS011;10795;50.796;3.860;2022-09-11T01:08:12;24.17;;;18.88;;
21270;SDS011;10795;50.796;3.860;2022-09-11T01:13:33;21.58;;;17.15;;
21270;SDS011;10795;50.796;3.860;2022-09-11T01:16:20;25.67;;;17.80;;
21270;SDS011;10795;50.796;3.860;2022-09-11T01:24:28;20.45;;;16.42;;
21270;SDS011;10795;50.796;3.860;2022-09-11T01:27:06;19.85;;;16.83;;
21270;SDS011;10795;50.796;3.860;2022-09-11T01:29:51;21.40;;;15.38;;
21270;SDS011;10795;50.796;3.860;2022-09-11T01:32:26;23.45;;;17.90;;
21270;SDS011;10795;50.796;3.860;2022-09-11T01:35:37;19.55;;;15.93;;
21270;SDS011;10795;50.796;3.860;2022-09-11T01:41:10;17.27;;;15.05;;
21270;SDS011;10795;50.796;3.860;2022-09-11T01:43:51;14.43;;;11.32;;
21270;SDS011;10795;50.796;3.860;2022-09-11T01:46:22;16.85;;;13.27;;
21270;SDS011;10795;50.796;3.860;2022-09-11T01:48:56;18.35;;;14.18;;
21270;SDS011;10795;50.796;3.860;2022-09-11T01:51:27;20.85;;;14.82;;
21270;SDS011;10795;50.796;3.860;2022-09-11T01:53:56;19.17;;;16.08;;
21270;SDS011;10795;50.796;3.860;2022-09-11T01:56:28;34.75;;;16.60;;
21270;SDS011;10795;50.796;3.860;2022-09-11T01:59:00;5.40;;;3.60;;
21270;SDS011;10795;50.796;3.860;2022-09-11T02:01:31;8.98;;;8.07;;
21270;SDS011;10795;50.796;3.860;2022-09-11T02:04:04;7.00;;;6.35;;
21270;SDS011;10795;50.796;3.860;2022-09-11T02:06:48;9.60;;;8.50;;
21270;SDS011;10795;50.796;3.860;2022-09-11T02:09:41;7.18;;;6.47;;
21270;SDS011;10795;50.796;3.860;2022-09-11T02:12:12;12.65;;;8.82;;
21270;SDS011;10795;50.796;3.860;2022-09-11T02:14:42;16.38;;;13.27;;
21270;SDS011;10795;50.796;3.860;2022-09-11T02:20:14;22.23;;;14.85;;
21270;SDS011;10795;50.796;3.860;2022-09-11T02:22:41;21.60;;;16.63;;
21270;SDS011;10795;50.796;3.860;2022-09-11T02:25:08;20.88;;;15.18;;
21270;SDS011;10795;50.796;3.860;2022-09-11T02:27:36;18.65;;;15.68;;
21270;SDS011;10795;50.796;3.860;2022-09-11T02:30:02;18.27;;;14.95;;
21270;SDS011;10795;50.796;3.860;2022-09-11T02:32:30;22.90;;;15.60;;
21270;SDS011;10795;50.796;3.860;2022-09-11T02:35:01;19.70;;;16.08;;
21270;SDS011;10795;50.796;3.860;2022-09-11T03:01:20;26.73;;;13.65;;
21270;SDS011;10795;50.796;3.860;2022-09-11T03:03:48;17.95;;;14.65;;
21270;SDS011;10795;50.796;3.860;2022-09-11T03:06:16;15.43;;;13.80;;
21270;SDS011;10795;50.796;3.860;2022-09-11T03:08:45;29.13;;;13.30;;
21270;SDS011;10795;50.796;3.860;2022-09-11T03:11:11;31.77;;;13.38;;
21270;SDS011;10795;50.796;3.860;2022-09-11T03:13:41;23.70;;;14.38;;
21270;SDS011;10795;50.796;3.860;2022-09-11T03:16:09;24.92;;;14.23;;
21270;SDS011;10795;50.796;3.860;2022-09-11T03:18:36;22.73;;;15.13;;
21270;SDS011;10795;50.796;3.860;2022-09-11T03:21:02;38.65;;;14.65;;
21270;SDS011;10795;50.796;3.860;2022-09-11T03:23:29;12.85;;;10.65;;
21270;SDS011;10795;50.796;3.860;2022-09-11T03:25:55;24.90;;;12.73;;
21270;SDS011;10795;50.796;3.860;2022-09-11T03:28:21;15.48;;;9.93;;
21270;SDS011;10795;50.796;3.860;2022-09-11T03:30:48;22.42;;;11.82;;
21270;SDS011;10795;50.796;3.860;2022-09-11T03:33:14;16.33;;;9.50;;
21270;SDS011;10795;50.796;3.860;2022-09-11T03:35:43;26.63;;;13.48;;
21270;SDS011;10795;50.796;3.860;2022-09-11T03:38:10;38.75;;;15.55;;
21270;SDS011;10795;50.796;3.860;2022-09-11T03:40:37;19.63;;;15.68;;
21270;SDS011;10795;50.796;3.860;2022-09-11T03:43:05;56.05;;;15.32;;
21270;SDS011;10795;50.796;3.860;2022-09-11T03:45:31;26.27;;;14.77;;
21270;SDS011;10795;50.796;3.860;2022-09-11T03:47:57;18.83;;;15.32;;
21270;SDS011;10795;50.796;3.860;2022-09-11T03:50:23;20.60;;;15.57;;
21270;SDS011;10795;50.796;3.860;2022-09-11T03:52:48;40.75;;;17.25;;
21270;SDS011;10795;50.796;3.860;2022-09-11T03:55:15;27.92;;;17.25;;
21270;SDS011;10795;50.796;3.860;2022-09-11T03:57:41;45.20;;;15.57;;
21270;SDS011;10795;50.796;3.860;2022-09-11T04:00:09;30.27;;;14.20;;
21270;SDS011;10795;50.796;3.860;2022-09-11T04:02:47;65.10;;;14.88;;
21270;SDS011;10795;50.796;3.860;2022-09-11T04:05:25;35.70;;;15.80;;
21270;SDS011;10795;50.796;3.860;2022-09-11T04:07:52;34.67;;;15.52;;
21270;SDS011;10795;50.796;3.860;2022-09-11T04:10:19;33.67;;;15.75;;
21270;SDS011;10795;50.796;3.860;2022-09-11T04:12:47;37.63;;;17.45;;
21270;SDS011;10795;50.796;3.860;2022-09-11T04:15:13;37.90;;;16.92;;
21270;SDS011;10795;50.796;3.860;2022-09-11T04:17:39;31.30;;;17.98;;
21270;SDS011;10795;50.796;3.860;2022-09-11T04:20:06;22.40;;;13.50;;
21270;SDS011;10795;50.796;3.860;2022-09-11T04:22:32;3.70;;;3.00;;
21270;SDS011;10795;50.796;3.860;2022-09-11T04:24:58;21.60;;;12.70;;
21270;SDS011;10795;50.796;3.860;2022-09-11T04:27:25;26.85;;;11.27;;
21270;SDS011;10795;50.796;3.860;2022-09-11T04:29:51;28.08;;;13.55;;
21270;SDS011;10795;50.796;3.860;2022-09-11T04:32:17;18.77;;;14.15;;
21270;SDS011;10795;50.796;3.860;2022-09-11T04:34:43;21.92;;;14.93;;
21270;SDS011;10795;50.796;3.860;2022-09-11T04:37:09;19.10;;;16.90;;
21270;SDS011;10795;50.796;3.860;2022-09-11T04:39:36;19.98;;;16.33;;
21270;SDS011;10795;50.796;3.860;2022-09-11T04:42:02;18.45;;;15.85;;
21270;SDS011;10795;50.796;3.860;2022-09-11T04:44:29;21.15;;;16.58;;
21270;SDS011;10795;50.796;3.860;2022-09-11T04:46:57;21.98;;;18.58;;
21270;SDS011;10795;50.796;3.860;2022-09-11T04:49:23;19.50;;;16.23;;
21270;SDS011;10795;50.796;3.860;2022-09-11T04:51:49;16.75;;;14.70;;
21270;SDS011;10795;50.796;3.860;2022-09-11T04:54:17;15.82;;;14.15;;
21270;SDS011;10795;50.796;3.860;2022-09-11T04:56:48;16.17;;;14.48;;
21270;SDS011;10795;50.796;3.860;2022-09-11T04:59:16;17.13;;;13.85;;
21270;SDS011;10795;50.796;3.860;2022-09-11T05:02:00;16.98;;;13.57;;
21270;SDS011;10795;50.796;3.860;2022-09-11T05:04:27;18.38;;;16.27;;
21270;SDS011;10795;50.796;3.860;2022-09-11T05:06:53;19.67;;;15.60;;
21270;SDS011;10795;50.796;3.860;2022-09-11T05:09:19;16.98;;;15.18;;
21270;SDS011;10795;50.796;3.860;2022-09-11T05:11:46;17.50;;;15.70;;
21270;SDS011;10795;50.796;3.860;2022-09-11T05:14:13;19.02;;;16.83;;
21270;SDS011;10795;50.796;3.860;2022-09-11T05:16:41;18.80;;;16.90;;
21270;SDS011;10795;50.796;3.860;2022-09-11T05:19:09;20.00;;;17.23;;
21270;SDS011;10795;50.796;3.860;2022-09-11T05:21:36;17.70;;;15.88;;
21270;SDS011;10795;50.796;3.860;2022-09-11T05:24:02;19.45;;;16.45;;
21270;SDS011;10795;50.796;3.860;2022-09-11T05:26:31;16.58;;;14.77;;
21270;SDS011;10795;50.796;3.860;2022-09-11T05:29:04;16.50;;;14.48;;
21270;SDS011;10795;50.796;3.860;2022-09-11T05:31:40;15.75;;;14.15;;
21270;SDS011;10795;50.796;3.860;2022-09-11T05:34:07;17.73;;;15.27;;
21270;SDS011;10795;50.796;3.860;2022-09-11T05:36:34;17.35;;;14.95;;
21270;SDS011;10795;50.796;3.860;2022-09-11T05:39:01;15.13;;;13.60;;
21270;SDS011;10795;50.796;3.860;2022-09-11T05:41:28;15.50;;;13.20;;
21270;SDS011;10795;50.796;3.860;2022-09-11T05:43:54;14.38;;;12.93;;
21270;SDS011;10795;50.796;3.860;2022-09-11T05:46:23;15.52;;;13.65;;
21270;SDS011;10795;50.796;3.860;2022-09-11T05:48:53;16.15;;;14.45;;
21270;SDS011;10795;50.796;3.860;2022-09-11T05:51:19;20.85;;;15.40;;
21270;SDS011;10795;50.796;3.860;2022-09-11T05:53:47;16.42;;;14.82;;
21270;SDS011;10795;50.796;3.860;2022-09-11T05:58:44;14.75;;;11.48;;
21270;SDS011;10795;50.796;3.860;2022-09-11T06:01:16;6.30;;;5.75;;
21270;SDS011;10795;50.796;3.860;2022-09-11T06:03:47;20.42;;;14.93;;
21270;SDS011;10795;50.796;3.860;2022-09-11T06:06:16;12.60;;;11.30;;
21270;SDS011;10795;50.796;3.860;2022-09-11T06:08:43;18.77;;;15.10;;
21270;SDS011;10795;50.796;3.860;2022-09-11T06:11:11;18.15;;;16.00;;
21270;SDS011;10795;50.796;3.860;2022-09-11T06:13:42;32.17;;;16.38;;
21270;SDS011;10795;50.796;3.860;2022-09-11T06:16:18;37.88;;;12.65;;
21270;SDS011;10795;50.796;3.860;2022-09-11T06:18:46;22.40;;;14.02;;
21270;SDS011;10795;50.796;3.860;2022-09-11T06:21:13;29.23;;;15.55;;
21270;SDS011;10795;50.796;3.860;2022-09-11T06:23:50;22.02;;;17.45;;
21270;SDS011;10795;50.796;3.860;2022-09-11T06:26:18;48.03;;;19.42;;
21270;SDS011;10795;50.796;3.860;2022-09-11T06:28:46;34.40;;;11.90;;
21270;SDS011;10795;50.796;3.860;2022-09-11T06:31:14;20.35;;;17.20;;
21270;SDS011;10795;50.796;3.860;2022-09-11T06:33:43;24.83;;;13.30;;
21270;SDS011;10795;50.796;3.860;2022-09-11T06:36:10;17.27;;;13.43;;
21270;SDS011;10795;50.796;3.860;2022-09-11T06:38:38;19.60;;;10.98;;
21270;SDS011;10795;50.796;3.860;2022-09-11T06:41:06;78.75;;;18.63;;
21270;SDS011;10795;50.796;3.860;2022-09-11T06:43:37;84.05;;;21.13;;
21270;SDS011;10795;50.796;3.860;2022-09-11T06:46:03;33.67;;;14.52;;
21270;SDS011;10795;50.796;3.860;2022-09-11T06:48:31;69.57;;;20.63;;
21270;SDS011;10795;50.796;3.860;2022-09-11T06:51:05;56.95;;;23.08;;
21270;SDS011;10795;50.796;3.860;2022-09-11T06:53:32;41.15;;;23.65;;
21270;SDS011;10795;50.796;3.860;2022-09-11T06:56:04;40.50;;;21.85;;
21270;SDS011;10795;50.796;3.860;2022-09-11T06:58:32;82.15;;;24.17;;
21270;SDS011;10795;50.796;3.860;2022-09-11T07:01:02;34.22;;;24.25;;
21270;SDS011;10795;50.796;3.860;2022-09-11T07:03:30;59.33;;;24.90;;
21270;SDS011;10795;50.796;3.860;2022-09-11T07:05:59;69.38;;;25.25;;
21270;SDS011;10795;50.796;3.860;2022-09-11T07:08:25;32.28;;;23.30;;
21270;SDS011;10795;50.796;3.860;2022-09-11T07:10:51;63.88;;;24.55;;
21270;SDS011;10795;50.796;3.860;2022-09-11T07:13:18;65.35;;;24.27;;
21270;SDS011;10795;50.796;3.860;2022-09-11T07:15:49;70.88;;;23.75;;
21270;SDS011;10795;50.796;3.860;2022-09-11T07:18:31;8.83;;;7.50;;
21270;SDS011;10795;50.796;3.860;2022-09-11T07:21:12;52.22;;;20.83;;
21270;SDS011;10795;50.796;3.860;2022-09-11T07:23:41;86.57;;;20.67;;
21270;SDS011;10795;50.796;3.860;2022-09-11T07:26:11;49.25;;;14.50;;
21270;SDS011;10795;50.796;3.860;2022-09-11T07:28:38;28.35;;;14.48;;
21270;SDS011;10795;50.796;3.860;2022-09-11T07:33:37;20.05;;;17.95;;
21270;SDS011;10795;50.796;3.860;2022-09-11T07:36:10;56.65;;;20.92;;
21270;SDS011;10795;50.796;3.860;2022-09-11T07:38:42;35.28;;;20.45;;
21270;SDS011;10795;50.796;3.860;2022-09-11T07:41:15;76.00;;;23.42;;
21270;SDS011;10795;50.796;3.860;2022-09-11T07:43:44;8.40;;;7.55;;
21270;SDS011;10795;50.796;3.860;2022-09-11T07:46:11;17.02;;;13.30;;
21270;SDS011;10795;50.796;3.860;2022-09-11T07:48:38;18.30;;;11.63;;
21270;SDS011;10795;50.796;3.860;2022-09-11T07:51:06;37.13;;;20.65;;
21270;SDS011;10795;50.796;3.860;2022-09-11T07:53:34;100.30;;;22.17;;
21270;SDS011;10795;50.796;3.860;2022-09-11T07:56:15;63.55;;;21.33;;
21270;SDS011;10795;50.796;3.860;2022-09-11T07:58:43;64.18;;;23.80;;
21270;SDS011;10795;50.796;3.860;2022-09-11T08:01:11;86.25;;;22.23;;
21270;SDS011;10795;50.796;3.860;2022-09-11T08:03:40;96.30;;;22.95;;
21270;SDS011;10795;50.796;3.860;2022-09-11T08:06:09;44.17;;;22.45;;
21270;SDS011;10795;50.796;3.860;2022-09-11T08:08:39;33.95;;;18.13;;
21270;SDS011;10795;50.796;3.860;2022-09-11T08:11:06;31.50;;;24.25;;
21270;SDS011;10795;50.796;3.860;2022-09-11T08:13:35;22.35;;;14.68;;
21270;SDS011;10795;50.796;3.860;2022-09-11T08:16:01;118.75;;;25.00;;
21270;SDS011;10795;50.796;3.860;2022-09-11T08:18:28;112.88;;;26.67;;
21270;SDS011;10795;50.796;3.860;2022-09-11T08:21:13;53.55;;;27.63;;
21270;SDS011;10795;50.796;3.860;2022-09-11T08:23:40;41.05;;;25.80;;
21270;SDS011;10795;50.796;3.860;2022-09-11T08:26:09;43.03;;;28.98;;
21270;SDS011;10795;50.796;3.860;2022-09-11T08:28:40;35.70;;;24.42;;
21270;SDS011;10795;50.796;3.860;2022-09-11T08:31:09;93.78;;;26.65;;
21270;SDS011;10795;50.796;3.860;2022-09-11T08:33:36;39.08;;;24.63;;
21270;SDS011;10795;50.796;3.860;2022-09-11T08:36:04;67.10;;;25.23;;
21270;SDS011;10795;50.796;3.860;2022-09-11T08:38:32;60.40;;;26.50;;
21270;SDS011;10795;50.796;3.860;2022-09-11T08:41:11;111.15;;;27.08;;
21270;SDS011;10795;50.796;3.860;2022-09-11T08:43:45;20.42;;;15.55;;
21270;SDS011;10795;50.796;3.860;2022-09-11T08:46:16;46.85;;;24.83;;
21270;SDS011;10795;50.796;3.860;2022-09-11T08:49:02;54.03;;;26.10;;
21270;SDS011;10795;50.796;3.860;2022-09-11T08:51:32;14.57;;;12.52;;
21270;SDS011;10795;50.796;3.860;2022-09-11T08:54:02;48.92;;;27.20;;
21270;SDS011;10795;50.796;3.860;2022-09-11T08:56:31;10.80;;;9.67;;
21270;SDS011;10795;50.796;3.860;2022-09-11T09:09:40;33.22;;;27.48;;
21270;SDS011;10795;50.796;3.860;2022-09-11T09:12:30;34.38;;;28.02;;
21270;SDS011;10795;50.796;3.860;2022-09-11T09:18:11;25.75;;;21.92;;
21270;SDS011;10795;50.796;3.860;2022-09-11T09:20:45;30.20;;;25.10;;
21270;SDS011;10795;50.796;3.860;2022-09-11T09:23:22;32.97;;;28.10;;
21270;SDS011;10795;50.796;3.860;2022-09-11T09:25:53;30.02;;;22.45;;
21270;SDS011;10795;50.796;3.860;2022-09-11T09:31:03;40.85;;;31.13;;
21270;SDS011;10795;50.796;3.860;2022-09-11T09:33:37;34.22;;;26.98;;
21270;SDS011;10795;50.796;3.860;2022-09-11T09:36:20;30.23;;;25.02;;
21270;SDS011;10795;50.796;3.860;2022-09-11T09:38:48;15.05;;;12.85;;
21270;SDS011;10795;50.796;3.860;2022-09-11T09:46:33;20.48;;;18.33;;
21270;SDS011;10795;50.796;3.860;2022-09-11T09:49:28;33.50;;;29.15;;
21270;SDS011;10795;50.796;3.860;2022-09-11T09:51:58;34.78;;;27.40;;
21270;SDS011;10795;50.796;3.860;2022-09-11T09:54:28;35.80;;;27.88;;
21270;SDS011;10795;50.796;3.860;2022-09-11T09:57:03;33.10;;;27.33;;
21270;SDS011;10795;50.796;3.860;2022-09-11T09:59:36;17.05;;;15.35;;
21270;SDS011;10795;50.796;3.860;2022-09-11T10:02:10;26.60;;;23.60;;
21270;SDS011;10795;50.796;3.860;2022-09-11T10:04:36;31.23;;;25.88;;
21270;SDS011;10795;50.796;3.860;2022-09-11T10:07:06;23.90;;;21.10;;
21270;SDS011;10795;50.796;3.860;2022-09-11T10:09:48;15.57;;;13.05;;
21270;SDS011;10795;50.796;3.860;2022-09-11T10:12:24;18.83;;;16.90;;
21270;SDS011;10795;50.796;3.860;2022-09-11T10:14:52;23.90;;;21.33;;
21270;SDS011;10795;50.796;3.860;2022-09-11T10:22:46;19.90;;;17.83;;
21270;SDS011;10795;50.796;3.860;2022-09-11T10:30:35;16.88;;;15.05;;
21270;SDS011;10795;50.796;3.860;2022-09-11T10:35:52;11.38;;;10.15;;
21270;SDS011;10795;50.796;3.860;2022-09-11T10:38:20;22.33;;;19.92;;
21270;SDS011;10795;50.796;3.860;2022-09-11T10:41:14;21.08;;;18.35;;
21270;SDS011;10795;50.796;3.860;2022-09-11T10:43:46;17.38;;;15.32;;
21270;SDS011;10795;50.796;3.860;2022-09-11T10:46:27;24.88;;;21.13;;
21270;SDS011;10795;50.796;3.860;2022-09-11T10:51:28;18.33;;;16.53;;
21270;SDS011;10795;50.796;3.860;2022-09-11T10:59:36;18.40;;;15.45;;
21270;SDS011;10795;50.796;3.860;2022-09-11T11:02:18;16.90;;;15.05;;
21270;SDS011;10795;50.796;3.860;2022-09-11T11:04:56;7.65;;;6.90;;
21270;SDS011;10795;50.796;3.860;2022-09-11T11:10:23;8.68;;;7.85;;
21270;SDS011;10795;50.796;3.860;2022-09-11T11:29:56;5.03;;;4.63;;
21270;SDS011;10795;50.796;3.860;2022-09-11T11:37:54;8.75;;;7.60;;
21270;SDS011;10795;50.796;3.860;2022-09-11T11:40:32;5.10;;;4.32;;
21270;SDS011;10795;50.796;3.860;2022-09-11T11:43:11;6.78;;;6.20;;
21270;SDS011;10795;50.796;3.860;2022-09-11T11:48:25;4.45;;;4.05;;
21270;SDS011;10795;50.796;3.860;2022-09-11T11:51:01;4.38;;;3.65;;
21270;SDS011;10795;50.796;3.860;2022-09-11T12:01:41;5.88;;;5.10;;
21270;SDS011;10795;50.796;3.860;2022-09-11T12:07:16;5.35;;;3.70;;
21270;SDS011;10795;50.796;3.860;2022-09-11T12:09:49;4.55;;;3.55;;
21270;SDS011;10795;50.796;3.860;2022-09-11T12:12:18;5.90;;;4.43;;
21270;SDS011;10795;50.796;3.860;2022-09-11T12:14:47;6.75;;;4.43;;
21270;SDS011;10795;50.796;3.860;2022-09-11T12:17:22;4.63;;;4.15;;
21270;SDS011;10795;50.796;3.860;2022-09-11T12:20:11;2.78;;;2.08;;
21270;SDS011;10795;50.796;3.860;2022-09-11T12:22:42;3.50;;;3.20;;
21270;SDS011;10795;50.796;3.860;2022-09-11T12:40:39;2.80;;;2.40;;
21270;SDS011;10795;50.796;3.860;2022-09-11T12:46:02;2.83;;;2.30;;
21270;SDS011;10795;50.796;3.860;2022-09-11T12:48:36;1.60;;;1.48;;
21270;SDS011;10795;50.796;3.860;2022-09-11T12:51:06;2.95;;;2.47;;
21270;SDS011;10795;50.796;3.860;2022-09-11T12:54:24;2.55;;;1.60;;
21270;SDS011;10795;50.796;3.860;2022-09-11T12:59:40;1.15;;;1.10;;
21270;SDS011;10795;50.796;3.860;2022-09-11T13:02:27;2.28;;;1.10;;
21270;SDS011;10795;50.796;3.860;2022-09-11T13:05:03;4.30;;;1.88;;
21270;SDS011;10795;50.796;3.860;2022-09-11T13:07:44;2.85;;;1.52;;
21270;SDS011;10795;50.796;3.860;2022-09-11T13:10:23;3.35;;;1.83;;
21270;SDS011;10795;50.796;3.860;2022-09-11T13:13:01;1.40;;;1.17;;
21270;SDS011;10795;50.796;3.860;2022-09-11T13:15:33;2.43;;;1.60;;
21270;SDS011;10795;50.796;3.860;2022-09-11T13:21:01;2.15;;;1.20;;
21270;SDS011;10795;50.796;3.860;2022-09-11T13:23:37;2.30;;;1.38;;
21270;SDS011;10795;50.796;3.860;2022-09-11T13:26:04;1.30;;;1.20;;
21270;SDS011;10795;50.796;3.860;2022-09-11T13:28:33;4.05;;;2.13;;
21270;SDS011;10795;50.796;3.860;2022-09-11T13:31:17;2.13;;;1.40;;
21270;SDS011;10795;50.796;3.860;2022-09-11T13:33:46;3.33;;;1.55;;
21270;SDS011;10795;50.796;3.860;2022-09-11T13:36:16;2.38;;;1.42;;
21270;SDS011;10795;50.796;3.860;2022-09-11T13:38:46;2.38;;;1.48;;
21270;SDS011;10795;50.796;3.860;2022-09-11T13:41:18;2.95;;;1.83;;
21270;SDS011;10795;50.796;3.860;2022-09-11T13:43:57;2.70;;;1.70;;
21270;SDS011;10795;50.796;3.860;2022-09-11T13:46:25;1.15;;;1.05;;
21270;SDS011;10795;50.796;3.860;2022-09-11T13:49:12;2.80;;;1.40;;
21270;SDS011;10795;50.796;3.860;2022-09-11T13:51:44;1.80;;;1.30;;
21270;SDS011;10795;50.796;3.860;2022-09-11T13:54:12;1.90;;;1.48;;
21270;SDS011;10795;50.796;3.860;2022-09-11T14:05:00;1.50;;;1.20;;
21270;SDS011;10795;50.796;3.860;2022-09-11T14:07:40;3.40;;;1.27;;
21270;SDS011;10795;50.796;3.860;2022-09-11T14:10:43;1.33;;;0.95;;
21270;SDS011;10795;50.796;3.860;2022-09-11T14:18:35;2.53;;;1.67;;
21270;SDS011;10795;50.796;3.860;2022-09-11T14:21:02;1.50;;;1.30;;
21270;SDS011;10795;50.796;3.860;2022-09-11T14:23:44;1.92;;;1.35;;
21270;SDS011;10795;50.796;3.860;2022-09-11T14:26:16;1.50;;;1.40;;
21270;SDS011;10795;50.796;3.860;2022-09-11T14:31:27;2.70;;;1.50;;
21270;SDS011;10795;50.796;3.860;2022-09-11T14:36:41;1.33;;;1.23;;
21270;SDS011;10795;50.796;3.860;2022-09-11T14:39:13;1.50;;;1.33;;
21270;SDS011;10795;50.796;3.860;2022-09-11T14:41:43;1.60;;;1.35;;
21270;SDS011;10795;50.796;3.860;2022-09-11T14:44:11;2.13;;;1.63;;
21270;SDS011;10795;50.796;3.860;2022-09-11T14:46:39;1.52;;;1.30;;
21270;SDS011;10795;50.796;3.860;2022-09-11T14:49:06;1.50;;;1.40;;
21270;SDS011;10795;50.796;3.860;2022-09-11T14:51:34;1.85;;;1.38;;
21270;SDS011;10795;50.796;3.860;2022-09-11T14:54:02;2.30;;;1.60;;
21270;SDS011;10795;50.796;3.860;2022-09-11T14:56:29;3.50;;;1.60;;
21270;SDS011;10795;50.796;3.860;2022-09-11T14:58:55;1.65;;;1.55;;
21270;SDS011;10795;50.796;3.860;2022-09-11T15:01:21;1.50;;;1.40;;
21270;SDS011;10795;50.796;3.860;2022-09-11T15:03:47;1.63;;;1.50;;
21270;SDS011;10795;50.796;3.860;2022-09-11T15:06:15;1.50;;;1.10;;
21270;SDS011;10795;50.796;3.860;2022-09-11T15:08:44;1.50;;;1.40;;
21270;SDS011;10795;50.796;3.860;2022-09-11T15:11:11;2.15;;;1.75;;
21270;SDS011;10795;50.796;3.860;2022-09-11T15:13:37;2.10;;;1.73;;
21270;SDS011;10795;50.796;3.860;2022-09-11T15:16:03;1.80;;;1.70;;
21270;SDS011;10795;50.796;3.860;2022-09-11T15:18:30;1.75;;;1.40;;
21270;SDS011;10795;50.796;3.860;2022-09-11T15:20:58;2.53;;;1.50;;
21270;SDS011;10795;50.796;3.860;2022-09-11T15:23:25;2.30;;;2.10;;
21270;SDS011;10795;50.796;3.860;2022-09-11T15:26:00;2.50;;;2.20;;
21270;SDS011;10795;50.796;3.860;2022-09-11T15:28:27;1.88;;;1.70;;
21270;SDS011;10795;50.796;3.860;2022-09-11T15:30:54;2.20;;;1.77;;
21270;SDS011;10795;50.796;3.860;2022-09-11T15:33:27;1.80;;;1.70;;
21270;SDS011;10795;50.796;3.860;2022-09-11T15:35:54;3.40;;;2.35;;
21270;SDS011;10795;50.796;3.860;2022-09-11T15:38:26;3.72;;;2.35;;
21270;SDS011;10795;50.796;3.860;2022-09-11T15:40:52;2.58;;;2.38;;
21270;SDS011;10795;50.796;3.860;2022-09-11T15:43:24;2.33;;;2.13;;
21270;SDS011;10795;50.796;3.860;2022-09-11T15:45:57;2.50;;;2.10;;
21270;SDS011;10795;50.796;3.860;2022-09-11T15:48:23;3.15;;;2.53;;
21270;SDS011;10795;50.796;3.860;2022-09-11T15:50:58;3.70;;;2.75;;
21270;SDS011;10795;50.796;3.860;2022-09-11T15:53:28;2.65;;;2.45;;
21270;SDS011;10795;50.796;3.860;2022-09-11T15:58:32;2.80;;;2.60;;
21270;SDS011;10795;50.796;3.860;2022-09-11T16:00:59;2.42;;;2.22;;
21270;SDS011;10795;50.796;3.860;2022-09-11T16:03:26;2.40;;;2.20;;
21270;SDS011;10795;50.796;3.860;2022-09-11T16:05:52;3.50;;;2.50;;
21270;SDS011;10795;50.796;3.860;2022-09-11T16:08:18;4.10;;;2.63;;
21270;SDS011;10795;50.796;3.860;2022-09-11T16:10:46;2.88;;;2.50;;
21270;SDS011;10795;50.796;3.860;2022-09-11T16:13:11;2.53;;;2.30;;
21270;SDS011;10795;50.796;3.860;2022-09-11T16:15:37;2.10;;;2.00;;
21270;SDS011;10795;50.796;3.860;2022-09-11T16:18:03;2.95;;;2.03;;
21270;SDS011;10795;50.796;3.860;2022-09-11T16:20:29;2.97;;;2.58;;
21270;SDS011;10795;50.796;3.860;2022-09-11T16:22:55;5.13;;;3.00;;
21270;SDS011;10795;50.796;3.860;2022-09-11T16:25:21;4.03;;;2.10;;
21270;SDS011;10795;50.796;3.860;2022-09-11T16:27:47;1.77;;;1.67;;
21270;SDS011;10795;50.796;3.860;2022-09-11T16:30:13;3.35;;;3.10;;
21270;SDS011;10795;50.796;3.860;2022-09-11T16:32:38;3.70;;;3.33;;
21270;SDS011;10795;50.796;3.860;2022-09-11T16:35:05;4.90;;;3.83;;
21270;SDS011;10795;50.796;3.860;2022-09-11T16:37:37;5.28;;;3.50;;
21270;SDS011;10795;50.796;3.860;2022-09-11T16:40:03;3.72;;;3.30;;
21270;SDS011;10795;50.796;3.860;2022-09-11T16:42:30;4.22;;;3.90;;
21270;SDS011;10795;50.796;3.860;2022-09-11T16:44:56;3.42;;;2.75;;
21270;SDS011;10795;50.796;3.860;2022-09-11T16:47:22;4.07;;;3.40;;
21270;SDS011;10795;50.796;3.860;2022-09-11T16:49:48;4.18;;;3.28;;
21270;SDS011;10795;50.796;3.860;2022-09-11T16:52:14;3.40;;;3.03;;
21270;SDS011;10795;50.796;3.860;2022-09-11T16:54:40;4.75;;;3.47;;
21270;SDS011;10795;50.796;3.860;2022-09-11T16:57:08;3.55;;;3.22;;
21270;SDS011;10795;50.796;3.860;2022-09-11T16:59:34;5.10;;;3.97;;
21270;SDS011;10795;50.796;3.860;2022-09-11T17:01:59;3.00;;;2.80;;
21270;SDS011;10795;50.796;3.860;2022-09-11T17:04:26;3.95;;;3.33;;
21270;SDS011;10795;50.796;3.860;2022-09-11T17:06:52;2.30;;;2.20;;
21270;SDS011;10795;50.796;3.860;2022-09-11T17:09:18;3.75;;;3.35;;
21270;SDS011;10795;50.796;3.860;2022-09-11T17:11:44;2.55;;;2.35;;
21270;SDS011;10795;50.796;3.860;2022-09-11T17:14:12;4.57;;;3.95;;
21270;SDS011;10795;50.796;3.860;2022-09-11T17:16:38;4.85;;;3.80;;
21270;SDS011;10795;50.796;3.860;2022-09-11T17:19:05;4.15;;;3.55;;
21270;SDS011;10795;50.796;3.860;2022-09-11T17:21:31;3.20;;;3.00;;
21270;SDS011;10795;50.796;3.860;2022-09-11T17:24:03;6.85;;;3.92;;
21270;SDS011;10795;50.796;3.860;2022-09-11T17:26:30;4.15;;;3.67;;
21270;SDS011;10795;50.796;3.860;2022-09-11T17:28:58;8.90;;;4.10;;
21270;SDS011;10795;50.796;3.860;2022-09-11T17:31:27;3.38;;;3.17;;
21270;SDS011;10795;50.796;3.860;2022-09-11T17:33:53;7.45;;;3.92;;
21270;SDS011;10795;50.796;3.860;2022-09-11T17:36:19;4.20;;;3.80;;
21270;SDS011;10795;50.796;3.860;2022-09-11T17:38:46;4.65;;;3.88;;
21270;SDS011;10795;50.796;3.860;2022-09-11T17:41:14;5.90;;;3.80;;
21270;SDS011;10795;50.796;3.860;2022-09-11T17:43:40;5.38;;;3.83;;
21270;SDS011;10795;50.796;3.860;2022-09-11T17:46:10;4.43;;;3.67;;